Time;durP1;ratioP1;P1;durP2;ratioP2;P2;SDS_P1;SDS_P2;PMS_P1;PMS_P2;Temp;Humidity;BMP_temperature;BMP_pressure;BME280_temperature;BME280_humidity;BME280_pressure;Samples;Min_cycle;Max_cycle;Signal;HPM_P1;HPM_P2
2022/12/12 00:00:39;;;;;;;50.28;18.17;;;-6.90;99.90;;;-9.05;100.00;100280.25;4911594;29;20029;-87
2022/12/12 00:03:05;;;;;;;45.42;16.92;;;-6.90;99.90;;;-9.02;100.00;100284.47;4906577;29;20032;-85
2022/12/12 00:05:34;;;;;;;50.08;18.33;;;-6.90;99.90;;;-8.96;100.00;100294.66;4905007;29;20543;-87
2022/12/12 00:07:59;;;;;;;42.25;17.65;;;-6.90;99.90;;;-8.81;100.00;100287.53;4908556;29;20035;-88
2022/12/12 00:10:25;;;;;;;47.28;18.00;;;-6.80;99.90;;;-8.87;100.00;100286.13;4919506;29;20020;-87
2022/12/12 00:12:51;;;;;;;47.38;18.02;;;-6.90;99.90;;;-9.11;100.00;100278.84;4910610;29;20765;-87
2022/12/12 00:15:17;;;;;;;47.53;17.67;;;-7.00;99.90;;;-8.98;100.00;100283.34;4913935;29;20046;-86
2022/12/12 00:17:43;;;;;;;43.15;16.27;;;-7.00;99.90;;;-9.15;100.00;100290.56;4913392;29;20036;-87
2022/12/12 00:20:09;;;;;;;39.45;16.17;;;-7.10;99.90;;;-9.43;100.00;100263.25;4907942;29;20111;-86
2022/12/12 00:22:35;;;;;;;46.72;16.95;;;-7.20;99.90;;;-9.40;100.00;100286.00;4908073;29;20038;-86
2022/12/12 00:25:01;;;;;;;46.95;17.42;;;-7.30;99.90;;;-9.40;100.00;100278.06;4913584;29;20036;-86
2022/12/12 00:27:26;;;;;;;42.65;17.00;;;-7.30;99.90;;;-9.26;100.00;100287.75;4930941;29;20483;-87
2022/12/12 00:29:53;;;;;;;46.50;17.42;;;-7.20;99.90;;;-9.25;100.00;100265.69;4929833;29;20049;-86
2022/12/12 00:32:23;;;;;;;45.60;17.42;;;-7.20;99.90;;;-9.27;100.00;100292.19;4937644;29;20032;-85
2022/12/12 00:34:49;;;;;;;50.95;17.77;;;-7.20;99.90;;;-9.26;100.00;100290.41;4924558;29;20047;-86
2022/12/12 00:37:15;;;;;;;44.63;18.33;;;-7.20;99.90;;;-9.44;100.00;100271.25;4929596;29;20049;-85
2022/12/12 00:39:41;;;;;;;43.78;15.77;;;-7.30;99.90;;;-9.34;100.00;100293.53;4931671;29;20176;-86
2022/12/12 00:42:07;;;;;;;45.10;17.33;;;-7.30;99.90;;;-9.49;100.00;100276.84;4923927;29;20033;-86
2022/12/12 00:44:33;;;;;;;41.00;15.75;;;-7.30;99.90;;;-9.50;100.00;100288.38;4927273;29;20394;-87
2022/12/12 00:46:59;;;;;;;40.83;16.60;;;-7.30;99.90;;;-9.55;100.00;100288.66;4905704;29;20104;-86
2022/12/12 00:49:25;;;;;;;35.80;13.90;;;-7.40;99.90;;;-9.66;100.00;100300.81;4911102;29;20095;-86
2022/12/12 00:51:51;;;;;;;38.92;15.25;;;-7.50;99.90;;;-9.79;100.00;100296.31;4910607;29;20040;-86
2022/12/12 00:54:36;;;;;;;40.58;15.95;;;-7.60;99.90;;;-9.83;100.00;100305.34;4904529;29;20051;-86
2022/12/12 00:57:08;;;;;;;39.13;15.60;;;-7.70;99.90;;;-9.84;100.00;100303.63;4904367;29;20411;-84
2022/12/12 00:59:34;;;;;;;38.67;16.00;;;-7.70;99.90;;;-9.87;100.00;100298.53;4904074;29;20033;-84
2022/12/12 01:02:00;;;;;;;36.33;14.27;;;-7.70;99.90;;;-9.79;100.00;100316.56;4913661;29;20112;-85
2022/12/12 01:04:26;;;;;;;33.63;14.93;;;-7.70;99.90;;;-9.88;100.00;100296.84;4912485;29;20036;-88
2022/12/12 01:06:51;;;;;;;43.58;15.75;;;-7.70;99.90;;;-9.86;100.00;100319.59;4921634;29;20033;-86
2022/12/12 01:09:17;;;;;;;42.20;15.95;;;-7.80;99.90;;;-9.89;100.00;100316.28;4908338;29;20517;-86
2022/12/12 01:11:43;;;;;;;42.20;16.38;;;-7.80;99.90;;;-9.90;100.00;100322.50;4902051;29;20107;-87
2022/12/12 01:14:09;;;;;;;42.63;16.58;;;-7.80;99.90;;;-9.91;100.00;100324.31;4902278;29;20089;-87
2022/12/12 01:16:38;;;;;;;45.17;16.00;;;-7.80;99.90;;;-9.92;100.00;100319.97;4901274;29;20030;-87
2022/12/12 01:19:04;;;;;;;39.47;15.32;;;-7.80;99.90;;;-9.94;100.00;100318.34;4912513;29;20036;-87
2022/12/12 01:21:29;;;;;;;44.72;16.90;;;-7.80;99.90;;;-9.79;100.00;100337.69;4898193;29;20047;-87
2022/12/12 01:23:55;;;;;;;45.72;17.17;;;-7.70;99.90;;;-9.72;100.00;100334.59;4907052;29;20067;-87
2022/12/12 01:26:24;;;;;;;45.42;17.60;;;-7.60;99.90;;;-9.61;100.00;100339.22;4912850;29;20046;-88
2022/12/12 01:28:50;;;;;;;45.05;18.35;;;-7.50;99.90;;;-9.48;100.00;100336.66;4902866;29;20062;-87
2022/12/12 01:31:17;;;;;;;49.15;18.40;;;-7.40;99.90;;;-9.38;100.00;100323.75;4908364;29;20044;-88
2022/12/12 01:33:44;;;;;;;46.25;17.55;;;-7.30;99.90;;;-9.37;100.00;100320.16;4901768;29;20430;-88
2022/12/12 01:36:15;;;;;;;;;;;-7.20;99.90;;;-9.30;100.00;100328.53;4898434;29;20090;-88
2022/12/12 01:38:47;;;;;;;39.85;14.80;;;-7.20;99.90;;;-9.25;100.00;100329.94;4910826;29;19926;-87
2022/12/12 01:41:14;;;;;;;42.50;17.15;;;-7.10;99.90;;;-9.24;100.00;100322.88;4909106;29;20051;-88
2022/12/12 01:43:41;;;;;;;45.20;17.35;;;-7.10;99.90;;;-9.09;100.00;100334.25;4903453;29;20060;-87
2022/12/12 01:46:33;;;;;;;44.85;17.45;;;-7.00;99.90;;;-9.15;100.00;100332.84;4907180;29;20044;-87
2022/12/12 01:49:25;;;;;;;46.60;19.25;;;-7.00;99.90;;;-9.03;100.00;100344.44;4912392;29;20055;-87
2022/12/12 01:52:07;;;;;;;46.55;18.88;;;-6.90;99.90;;;-9.01;100.00;100339.06;4907292;29;20111;-87
2022/12/12 01:54:41;;;;;;;47.30;17.98;;;-6.90;99.90;;;-8.99;100.00;100342.47;4904642;29;20036;-86
2022/12/12 01:57:14;;;;;;;48.55;17.55;;;-6.80;99.90;;;-9.05;100.00;100326.97;4911974;29;20686;-87
2022/12/12 01:59:41;;;;;;;49.25;18.45;;;-6.80;99.90;;;-8.94;100.00;100335.06;4918040;29;20032;-87
2022/12/12 02:02:08;;;;;;;49.15;19.45;;;-6.80;99.90;;;-8.96;100.00;100334.34;4915579;29;20051;-87
2022/12/12 02:04:34;;;;;;;46.35;18.45;;;-6.80;99.90;;;-9.11;100.00;100321.13;4906613;29;20096;-87
2022/12/12 02:07:02;;;;;;;52.70;19.92;;;-6.80;99.90;;;-9.18;100.00;100318.97;4911806;29;20084;-88
2022/12/12 02:09:28;;;;;;;50.60;19.77;;;-6.90;99.90;;;-9.13;100.00;100330.97;4919414;29;20040;-88
2022/12/12 02:11:57;;;;;;;52.80;19.77;;;-7.00;99.90;;;-9.14;100.00;100331.06;4918714;29;20071;-87
2022/12/12 02:14:35;;;;;;;46.50;18.15;;;-7.00;99.90;;;-9.15;100.00;100331.97;4910374;29;20479;-86
2022/12/12 02:17:35;;;;;;;51.40;19.27;;;-7.00;99.90;;;-9.22;100.00;100336.84;4914556;29;20036;-88
2022/12/12 02:20:29;;;;;;;;;;;-7.10;99.90;;;-9.35;100.00;100320.03;4917458;29;20047;-87
2022/12/12 02:23:45;;;;;;;53.63;18.48;;;-7.20;99.90;;;-9.18;100.00;100330.41;4915996;29;19970;-85
2022/12/12 02:26:54;;;;;;;47.30;19.10;;;-7.10;99.90;;;-9.14;100.00;100329.25;4916032;29;20479;-86
2022/12/12 02:30:08;;;;;;;48.58;20.02;;;-7.00;99.90;;;-9.12;100.00;100332.66;4914296;29;20043;-86
2022/12/12 02:33:06;;;;;;;43.20;17.90;;;-7.00;99.90;;;-9.19;100.00;100336.63;4894008;29;20067;-85
2022/12/12 02:36:18;;;;;;;49.13;18.95;;;-7.00;99.90;;;-9.36;100.00;100339.47;4911518;29;20044;-86
2022/12/12 02:39:07;;;;;;;47.38;18.73;;;-7.20;99.90;;;-9.43;100.00;100346.94;4912212;29;20046;-87
2022/12/12 02:42:20;;;;;;;45.17;18.75;;;-7.40;99.90;;;-9.52;100.00;100348.38;4924296;29;20041;-88
2022/12/12 02:44:56;;;;;;;47.08;18.27;;;-7.40;99.90;;;-9.56;100.00;100349.47;4933182;29;20509;-88
2022/12/12 02:47:30;;;;;;;44.85;17.65;;;-7.50;99.90;;;-9.71;100.00;100332.78;4931461;29;20051;-88
2022/12/12 02:50:04;;;;;;;46.03;18.73;;;-7.50;99.90;;;-9.60;100.00;100347.97;4927005;29;20060;-89
2022/12/12 02:52:33;;;;;;;53.65;19.02;;;-7.50;99.90;;;-9.58;100.00;100346.09;4929260;29;20044;-88
2022/12/12 02:54:59;;;;;;;44.60;18.23;;;-7.50;99.90;;;-9.56;100.00;100352.13;4937676;29;20028;-87
2022/12/12 02:57:29;;;;;;;50.28;19.42;;;-7.50;99.90;;;-9.51;100.00;100344.78;4925604;29;20040;-87
2022/12/12 03:00:07;;;;;;;50.15;19.50;;;-7.40;99.90;;;-9.44;100.00;100346.09;4935581;29;20078;-85
2022/12/12 03:10:09;;;;;;;49.20;18.33;;;-7.10;99.90;;;-9.26;100.00;100361.75;4913047;29;20115;-86
2022/12/12 03:13:00;;;;;;;48.53;18.55;;;-7.20;99.90;;;-9.38;100.00;100352.81;4903569;29;20035;-87
2022/12/12 03:16:01;;;;;;;45.33;19.02;;;-7.20;99.90;;;-9.44;100.00;100358.44;4911727;29;20052;-88
2022/12/12 03:18:50;;;;;;;48.42;20.27;;;-7.30;99.90;;;-9.50;100.00;100349.13;4910478;29;20070;-88
2022/12/12 03:21:45;;;;;;;50.92;20.25;;;-7.40;99.90;;;-9.55;100.00;100328.28;4919552;29;20117;-88
2022/12/12 03:24:22;;;;;;;54.42;19.77;;;-7.40;99.90;;;-9.46;100.00;100329.50;4908660;29;20309;-87
2022/12/12 03:27:17;;;;;;;52.83;20.33;;;-7.30;99.90;;;-9.28;100.00;100347.81;4911406;29;20032;-88
2022/12/12 03:29:55;;;;;;;51.03;21.17;;;-7.20;99.90;;;-9.37;100.00;100324.56;4907165;29;20029;-87
2022/12/12 03:32:43;;;;;;;;;;;-7.10;99.90;;;-9.33;100.00;100334.88;4912342;29;20107;-86
2022/12/12 03:35:35;;;;;;;48.72;17.88;;;-7.10;99.90;;;-9.47;100.00;100342.78;4911554;29;19919;-86
2022/12/12 03:38:19;;;;;;;51.25;19.17;;;-7.30;99.90;;;-9.60;100.00;100354.13;4913290;29;20032;-86
2022/12/12 03:40:58;;;;;;;49.45;18.85;;;-7.40;99.90;;;-9.54;100.00;100350.25;4908394;29;20491;-85
2022/12/12 03:43:38;;;;;;;52.78;19.08;;;-7.40;99.90;;;-9.46;100.00;100345.34;4907257;29;20052;-87
2022/12/12 03:46:37;;;;;;;54.47;20.10;;;-7.30;99.90;;;-9.50;100.00;100332.41;4901878;29;20127;-87
2022/12/12 03:49:17;;;;;;;49.85;18.05;;;-7.40;99.90;;;-9.56;100.00;100342.41;4903658;29;20044;-87
2022/12/12 03:51:57;;;;;;;50.25;19.65;;;-7.40;99.90;;;-9.64;100.00;100344.69;4910000;29;20075;-87
2022/12/12 03:54:50;;;;;;;50.85;19.20;;;-7.50;99.90;;;-9.77;100.00;100344.59;4907559;29;20039;-87
2022/12/12 03:57:45;;;;;;;46.05;18.60;;;-7.70;99.90;;;-9.95;100.00;100327.22;4900662;29;20063;-87
2022/12/12 04:00:14;;;;;;;47.65;17.70;;;-7.80;99.90;;;-9.85;100.00;100341.53;4900509;29;20044;-87
2022/12/12 04:03:02;;;;;;;48.25;18.08;;;-7.80;99.90;;;-9.89;100.00;100334.75;4903601;29;20040;-88
2022/12/12 04:06:25;;;;;;;48.25;18.70;;;-7.90;99.90;;;-9.93;100.00;100330.59;4913313;29;20175;-86
2022/12/12 04:15:14;;;;;;;50.22;18.88;;;-7.70;99.90;;;-9.76;100.00;100350.72;4905933;29;20508;-88
2022/12/12 04:18:05;;;;;;;51.47;19.23;;;-7.70;99.90;;;-9.64;100.00;100357.03;4904748;29;20029;-87
2022/12/12 04:24:00;;;;;;;54.75;19.50;;;-7.50;99.90;;;-9.51;100.00;100354.50;4904811;29;20045;-87
2022/12/12 04:27:02;;;;;;;48.55;18.33;;;-7.40;99.90;;;-9.50;100.00;100364.13;4903933;29;20041;-88
2022/12/12 04:29:37;;;;;;;50.58;18.70;;;-7.40;99.90;;;-9.47;100.00;100358.63;4907183;29;20064;-88
2022/12/12 04:32:31;;;;;;;56.78;19.73;;;-7.40;99.90;;;-9.52;100.00;100358.94;4906786;29;20051;-87
2022/12/12 04:35:14;;;;;;;51.00;18.73;;;-7.50;99.90;;;-9.52;100.00;100355.44;4912780;29;20040;-88
2022/12/12 04:37:57;;;;;;;56.83;20.00;;;-7.40;99.90;;;-9.56;100.00;100341.56;4902367;29;20088;-88
2022/12/12 04:40:31;;;;;;;47.70;18.60;;;-7.40;99.90;;;-9.41;100.00;100351.19;4908813;29;20032;-89
2022/12/12 04:43:19;;;;;;;49.13;18.73;;;-7.40;99.90;;;-9.34;100.00;100356.94;4925395;29;20123;-87
2022/12/12 04:45:58;;;;;;;56.03;20.00;;;-7.30;99.90;;;-9.31;100.00;100364.69;4902717;29;20029;-89
2022/12/12 04:48:39;;;;;;;47.38;19.05;;;-7.30;99.90;;;-9.28;100.00;100353.09;4909100;29;20052;-87
2022/12/12 04:51:07;;;;;;;56.72;19.75;;;-7.20;99.90;;;-9.19;100.00;100354.28;4905719;29;20028;-88
2022/12/12 04:53:43;;;;;;;57.03;20.05;;;-7.10;99.90;;;-9.28;100.00;100353.91;4913385;29;20062;-86
2022/12/12 04:56:18;;;;;;;50.97;19.13;;;-7.20;99.90;;;-9.40;100.00;100350.25;4907959;29;21067;-87
2022/12/12 04:58:45;;;;;;;48.97;18.33;;;-7.30;99.90;;;-9.44;100.00;100356.66;4899922;29;20024;-87
2022/12/12 05:01:24;;;;;;;51.92;19.67;;;-7.40;99.90;;;-9.43;100.00;100346.94;4914622;29;20033;-88
2022/12/12 05:04:00;;;;;;;53.10;19.77;;;-7.40;99.90;;;-9.53;100.00;100357.25;4902816;29;20032;-87
2022/12/12 05:06:54;;;;;;;50.85;18.05;;;-7.40;99.90;;;-9.62;100.00;100371.00;4913570;29;20076;-89
2022/12/12 05:09:20;;;;;;;44.45;17.65;;;-7.50;99.90;;;-9.83;100.00;100379.25;4904870;29;20032;-87
2022/12/12 05:11:47;;;;;;;48.13;18.17;;;-7.70;99.90;;;-10.13;100.00;100374.88;4901243;29;20043;-88
2022/12/12 05:14:16;;;;;;;48.03;18.90;;;-7.90;99.90;;;-10.19;100.00;100383.16;4907672;29;20036;-88
2022/12/12 05:16:49;;;;;;;47.63;18.77;;;-8.00;99.90;;;-10.24;100.00;100377.28;4911959;29;20091;-89
2022/12/12 05:19:14;;;;;;;49.50;17.88;;;-8.00;99.90;;;-10.26;100.00;100372.97;4901885;29;20511;-88
2022/12/12 05:21:40;;;;;;;47.55;17.52;;;-8.10;99.90;;;-10.30;100.00;100379.34;4906042;29;20028;-89
2022/12/12 05:24:06;;;;;;;47.45;17.45;;;-8.10;99.90;;;-10.26;100.00;100382.66;4907524;29;20051;-89
2022/12/12 05:26:34;;;;;;;48.45;17.45;;;-8.10;99.90;;;-10.19;100.00;100389.28;4908002;29;20039;-90
2022/12/12 05:29:01;;;;;;;51.92;17.73;;;-8.10;99.90;;;-10.01;100.00;100390.00;4901909;29;20048;-88
2022/12/12 05:31:27;;;;;;;49.22;17.80;;;-7.90;99.90;;;-9.93;100.00;100389.56;4912079;29;20068;-89
2022/12/12 05:33:53;;;;;;;48.08;18.83;;;-7.80;99.90;;;-9.85;100.00;100389.06;4904955;29;20037;-87
2022/12/12 05:36:20;;;;;;;50.42;18.10;;;-7.70;99.90;;;-9.80;100.00;100394.94;4907084;29;20036;-86
2022/12/12 05:38:46;;;;;;;46.47;18.63;;;-7.70;99.90;;;-9.80;100.00;100394.94;4906816;29;20510;-87
2022/12/12 05:41:14;;;;;;;52.30;18.70;;;-7.70;99.90;;;-9.75;100.00;100394.66;4910219;29;20112;-86
2022/12/12 05:43:40;;;;;;;49.95;18.30;;;-7.70;99.90;;;-9.78;100.00;100386.91;4906432;29;20076;-86
2022/12/12 05:46:06;;;;;;;51.25;18.20;;;-7.70;99.90;;;-9.78;100.00;100398.34;4921898;29;20047;-89
2022/12/12 05:48:32;;;;;;;50.60;17.45;;;-7.70;99.90;;;-9.78;100.00;100395.72;4936225;29;20083;-88
2022/12/12 05:51:01;;;;;;;44.67;17.95;;;-7.70;99.90;;;-9.84;100.00;100396.06;4928375;29;20112;-82
2022/12/12 05:53:28;;;;;;;45.88;17.88;;;-7.70;99.90;;;-9.80;100.00;100396.72;4916245;29;20043;-84
2022/12/12 05:55:54;;;;;;;48.83;18.30;;;-7.70;99.90;;;-9.79;100.00;100387.88;4917378;29;20060;-82
2022/12/12 05:58:19;;;;;;;51.05;18.20;;;-7.70;99.90;;;-9.87;100.00;100401.50;4909384;29;20059;-83
2022/12/12 06:00:47;;;;;;;46.15;17.52;;;-7.70;99.90;;;-10.12;100.00;100388.00;4911857;29;20078;-83
2022/12/12 06:03:14;;;;;;;;;;;-7.80;99.90;;;-10.13;100.00;100403.91;4900501;29;20594;-82
2022/12/12 06:05:39;;;;;;;44.17;14.95;;;-8.00;99.90;;;-10.23;100.00;100403.56;4907185;29;19926;-82
2022/12/12 06:08:05;;;;;;;45.15;16.02;;;-8.10;99.90;;;-10.31;100.00;100401.41;4909404;29;20395;-82
2022/12/12 06:10:31;;;;;;;51.30;17.15;;;-8.20;99.90;;;-10.26;100.00;100412.53;4905147;29;20040;-82
2022/12/12 06:12:57;;;;;;;49.97;16.80;;;-8.20;99.90;;;-10.22;100.00;100404.44;4902160;29;20040;-81
2022/12/12 06:15:22;;;;;;;44.90;18.45;;;-8.10;99.90;;;-10.09;100.00;100426.53;4902088;29;20496;-81
2022/12/12 06:17:50;;;;;;;43.40;17.05;;;-8.00;99.90;;;-10.01;100.00;100410.25;4910522;29;20056;-82
2022/12/12 06:20:18;;;;;;;49.20;17.90;;;-7.80;99.90;;;-9.90;100.00;100414.91;4914767;29;20152;-83
2022/12/12 06:22:43;;;;;;;49.80;17.65;;;-7.70;99.90;;;-9.86;100.00;100405.84;4914231;29;20036;-82
2022/12/12 06:25:10;;;;;;;51.83;20.15;;;-7.60;99.90;;;-9.78;100.00;100416.84;4907357;29;20044;-83
2022/12/12 06:27:36;;;;;;;52.05;18.30;;;-7.60;99.90;;;-9.82;100.00;100421.44;4909708;29;20036;-83
2022/12/12 06:30:04;;;;;;;51.40;19.02;;;-7.70;99.90;;;-9.80;100.00;100426.63;4905562;29;20092;-84
2022/12/12 06:32:30;;;;;;;49.15;17.83;;;-7.70;99.90;;;-9.77;100.00;100415.91;4900977;29;20099;-82
2022/12/12 06:34:55;;;;;;;46.55;17.80;;;-7.60;99.90;;;-9.72;100.00;100419.09;4904691;29;20431;-80
2022/12/12 06:37:21;;;;;;;50.15;17.98;;;-7.60;99.90;;;-9.74;100.00;100412.19;4908448;29;20028;-80
2022/12/12 06:39:47;;;;;;;53.60;18.48;;;-7.60;99.90;;;-9.79;100.00;100411.63;4912636;29;20055;-83
2022/12/12 06:42:13;;;;;;;48.83;19.20;;;-7.70;99.90;;;-9.85;100.00;100418.13;4908201;29;20518;-82
2022/12/12 06:44:39;;;;;;;51.10;18.52;;;-7.70;99.90;;;-9.93;100.00;100412.44;4909101;29;20115;-78
2022/12/12 06:47:06;;;;;;;51.57;18.30;;;-7.80;99.90;;;-9.77;100.00;100421.19;4912660;29;20135;-77
2022/12/12 06:49:31;;;;;;;51.20;17.25;;;-7.60;99.90;;;-9.68;100.00;100425.91;4908850;29;20567;-77
2022/12/12 06:51:57;;;;;;;49.75;17.27;;;-7.50;99.90;;;-9.64;100.00;100426.56;4911733;29;20360;-77
2022/12/12 06:54:23;;;;;;;50.10;17.20;;;-7.50;99.90;;;-9.62;100.00;100427.34;4911930;29;20032;-77
2022/12/12 06:56:48;;;;;;;49.10;17.13;;;-7.50;99.90;;;-9.66;100.00;100428.47;4911100;29;20039;-77
2022/12/12 06:59:15;;;;;;;56.45;18.13;;;-7.60;99.90;;;-9.79;100.00;100416.91;4911931;29;20052;-82
2022/12/12 07:01:41;;;;;;;45.90;16.80;;;-7.60;99.90;;;-9.82;100.00;100431.13;4911397;29;20028;-80
2022/12/12 07:04:06;;;;;;;46.78;16.55;;;-7.70;99.90;;;-9.82;100.00;100444.34;4911392;29;20123;-80
2022/12/12 07:06:32;;;;;;;49.75;17.35;;;-7.70;99.90;;;-9.83;100.00;100432.94;4909263;29;20483;-78
2022/12/12 07:08:59;;;;;;;49.22;17.63;;;-7.60;99.90;;;-9.75;100.00;100431.63;4913006;29;20063;-79
2022/12/12 07:11:26;;;;;;;51.50;19.33;;;-7.60;99.90;;;-9.69;100.00;100442.69;4905265;29;20047;-79
2022/12/12 07:13:55;;;;;;;48.35;18.00;;;-7.50;99.90;;;-9.64;100.00;100447.69;4912049;29;20506;-78
2022/12/12 07:16:21;;;;;;;46.30;16.80;;;-7.50;99.90;;;-9.71;100.00;100444.56;4900246;29;20032;-77
2022/12/12 07:18:47;;;;;;;43.90;16.98;;;-7.60;99.90;;;-9.72;100.00;100450.78;4906592;29;20028;-77
2022/12/12 07:21:17;;;;;;;46.47;16.50;;;-7.60;99.90;;;-9.79;100.00;100453.88;4909822;29;20024;-76
2022/12/12 07:23:44;;;;;;;50.60;18.00;;;-7.70;99.90;;;-9.78;100.00;100463.50;4908187;29;20036;-76
2022/12/12 07:26:18;;;;;;;57.58;17.70;;;-7.70;99.90;;;-9.88;100.00;100452.63;4910685;29;20043;-76
2022/12/12 07:28:44;;;;;;;44.65;15.18;;;-7.80;99.90;;;-9.92;100.00;100464.31;4909719;29;20036;-77
2022/12/12 07:31:14;;;;;;;47.40;16.70;;;-7.90;99.90;;;-9.94;100.00;100466.19;4910137;29;20114;-76
2022/12/12 07:33:41;;;;;;;41.67;15.50;;;-7.80;99.90;;;-9.87;100.00;100475.44;4910116;29;20040;-76
2022/12/12 07:36:08;;;;;;;45.10;16.20;;;-7.80;99.90;;;-9.97;100.00;100454.88;4909296;29;20419;-76
2022/12/12 07:38:35;;;;;;;47.63;16.58;;;-7.70;99.90;;;-9.82;100.00;100476.03;4910056;29;20634;-76
2022/12/12 07:41:07;;;;;;;51.25;16.60;;;-7.70;99.90;;;-9.99;100.00;100466.44;4912202;29;20028;-76
2022/12/12 07:43:35;;;;;;;45.30;15.40;;;-7.80;99.90;;;-10.16;100.00;100472.69;4910673;29;20471;-77
2022/12/12 07:46:04;;;;;;;;;;;-8.00;99.90;;;-10.30;100.00;100471.72;4910641;29;20131;-77
2022/12/12 07:48:30;;;;;;;41.92;14.13;;;-8.10;99.90;;;-10.48;100.00;100470.13;4909551;29;19922;-77
2022/12/12 07:51:00;;;;;;;41.28;14.65;;;-8.30;99.90;;;-10.47;100.00;100483.25;4910787;29;20468;-77
2022/12/12 07:53:26;;;;;;;46.30;16.13;;;-8.30;99.90;;;-10.32;100.00;100489.41;4911875;29;20063;-77
2022/12/12 07:55:52;;;;;;;46.67;16.35;;;-8.20;99.90;;;-10.33;100.00;100485.06;4910093;29;20221;-77
2022/12/12 07:58:17;;;;;;;44.95;17.17;;;-8.20;99.90;;;-10.28;100.00;100496.22;4910962;29;20031;-77
2022/12/12 08:00:44;;;;;;;39.70;15.70;;;-8.20;99.90;;;-10.29;100.00;100483.97;4909848;29;20036;-76
2022/12/12 08:03:09;;;;;;;44.30;15.95;;;-8.10;99.90;;;-10.19;100.00;100483.44;4904644;29;20051;-76
2022/12/12 08:05:42;;;;;;;40.05;15.52;;;-8.00;99.90;;;-10.00;100.00;100493.78;4907549;29;20408;-76
2022/12/12 08:08:08;;;;;;;33.95;14.23;;;-7.90;99.90;;;-9.87;100.00;100493.94;4907685;29;20135;-76
2022/12/12 08:10:40;;;;;;;50.80;16.40;;;-7.80;99.90;;;-9.79;100.00;100481.16;4906520;29;20036;-76
2022/12/12 08:13:06;;;;;;;48.72;16.73;;;-7.70;99.90;;;-9.68;100.00;100484.00;4908257;29;20046;-76
2022/12/12 08:15:33;;;;;;;47.63;18.42;;;-7.60;99.90;;;-9.56;100.00;100486.84;4905654;29;20036;-76
2022/12/12 08:17:58;;;;;;;47.85;16.70;;;-7.50;99.90;;;-9.50;100.00;100481.22;4905443;29;20037;-76
2022/12/12 08:20:24;;;;;;;46.58;16.95;;;-7.40;99.90;;;-9.37;100.00;100481.34;4907271;29;20028;-77
2022/12/12 08:22:50;;;;;;;53.63;18.48;;;-7.20;99.90;;;-9.15;100.00;100488.81;4900660;29;20488;-77
2022/12/12 08:25:16;;;;;;;48.25;17.13;;;-7.10;99.90;;;-9.06;100.00;100491.81;4902918;29;20359;-74
2022/12/12 08:27:42;;;;;;;49.55;18.20;;;-7.00;99.90;;;-9.01;100.00;100493.25;4906702;29;20048;-73
2022/12/12 08:30:08;;;;;;;45.47;17.48;;;-6.90;99.90;;;-8.93;100.00;100495.44;4909705;29;20071;-74
2022/12/12 08:32:36;;;;;;;45.83;16.70;;;-6.80;99.90;;;-8.83;100.00;100496.56;4905368;29;20055;-76
2022/12/12 08:35:02;;;;;;;50.72;18.23;;;-6.70;99.90;;;-8.69;100.00;100498.34;4907863;29;20096;-75
2022/12/12 08:37:28;;;;;;;47.75;17.10;;;-6.60;99.90;;;-8.57;100.00;100498.53;4917484;29;20116;-70
2022/12/12 08:39:54;;;;;;;46.50;16.77;;;-6.50;99.90;;;-8.37;100.00;100497.22;4907860;29;20035;-71
2022/12/12 08:42:21;;;;;;;50.63;18.05;;;-6.30;99.90;;;-8.21;100.00;100491.78;4910248;29;20104;-75
2022/12/12 08:44:48;;;;;;;56.30;19.02;;;-6.20;99.90;;;-8.10;100.00;100484.00;4908438;29;20475;-75
2022/12/12 08:47:14;;;;;;;57.88;19.30;;;-6.00;99.90;;;-7.84;100.00;100492.00;4904273;29;20481;-76
2022/12/12 08:49:40;;;;;;;61.25;19.70;;;-5.80;99.90;;;-7.70;100.00;100491.09;4908447;29;20144;-80
2022/12/12 08:52:08;;;;;;;62.40;20.58;;;-5.60;99.90;;;-7.58;100.00;100492.09;4914675;29;20468;-77
2022/12/12 08:54:35;;;;;;;51.55;19.77;;;-5.50;99.90;;;-7.41;100.00;100498.06;4904531;29;20467;-76
2022/12/12 08:57:02;;;;;;;56.28;19.35;;;-5.30;99.90;;;-7.31;100.00;100491.16;4909073;29;20036;-77
2022/12/12 08:59:28;;;;;;;58.75;20.50;;;-5.20;99.90;;;-7.14;100.00;100500.63;4910387;29;20456;-77
2022/12/12 09:01:54;;;;;;;61.38;22.90;;;-5.00;99.90;;;-7.01;100.00;100497.13;4906046;29;20484;-80
2022/12/12 09:04:19;;;;;;;62.10;22.13;;;-4.90;99.90;;;-6.88;100.00;100491.81;4904627;29;20048;-78
2022/12/12 09:06:45;;;;;;;59.70;21.45;;;-4.80;99.90;;;-6.70;100.00;100492.31;4907576;29;20087;-78
2022/12/12 09:09:11;;;;;;;65.97;22.10;;;-4.60;99.90;;;-6.51;100.00;100498.00;4908212;29;20179;-77
2022/12/12 09:11:36;;;;;;;66.32;22.38;;;-4.40;99.90;;;-6.32;100.00;100494.03;4908606;29;20519;-79
2022/12/12 09:14:02;;;;;;;60.60;21.38;;;-4.30;99.90;;;-6.24;100.00;100494.31;4911612;29;20032;-77
2022/12/12 09:16:28;;;;;;;67.22;23.20;;;-4.10;99.90;;;-6.09;100.00;100484.38;4915732;29;20028;-79
2022/12/12 09:18:55;;;;;;;64.15;23.45;;;-4.00;99.90;;;-5.87;100.00;100489.88;4907243;29;20041;-78
2022/12/12 09:21:21;;;;;;;62.17;22.60;;;-3.80;99.90;;;-5.74;100.00;100498.66;4908678;29;20483;-79
2022/12/12 09:23:48;;;;;;;68.70;23.60;;;-3.70;99.90;;;-5.53;100.00;100501.50;4904739;29;20039;-79
2022/12/12 09:26:14;;;;;;;64.40;22.65;;;-3.50;99.90;;;-5.42;100.00;100495.38;4903989;29;20041;-80
2022/12/12 09:28:40;;;;;;;56.53;22.35;;;-3.40;99.90;;;-5.29;100.00;100502.44;4908125;29;20032;-77
2022/12/12 09:31:09;;;;;;;60.03;22.23;;;-3.20;99.90;;;-5.04;100.00;100501.38;4909747;29;20044;-82
2022/12/12 09:33:36;;;;;;;60.08;24.10;;;-2.90;99.90;;;-4.86;100.00;100501.75;4909831;29;21941;-78
2022/12/12 09:36:05;;;;;;;67.40;24.58;;;-2.40;99.90;;;-4.81;100.00;100502.22;4907641;29;20242;-78
2022/12/12 09:38:31;;;;;;;68.95;25.95;;;-1.80;99.90;;;-4.55;100.00;100504.66;4904473;29;20032;-78
2022/12/12 09:41:02;;;;;;;70.90;26.85;;;-1.20;99.90;;;-4.21;100.00;100501.09;4907220;29;20085;-78
2022/12/12 09:43:35;;;;;;;65.15;25.42;;;-0.60;99.90;;;-3.77;100.00;100509.09;4909664;29;20127;-77
2022/12/12 09:46:11;;;;;;;60.53;24.08;;;-0.10;99.90;;;-3.06;100.00;100507.66;4906279;29;20077;-79
2022/12/12 09:48:45;;;;;;;54.47;23.00;;;0.60;99.90;;;-2.20;100.00;100503.81;4904018;29;20070;-78
2022/12/12 09:51:12;;;;;;;54.60;23.27;;;1.00;99.90;;;-1.16;100.00;100511.31;4909958;29;20024;-78
2022/12/12 09:53:45;;;;;;;46.88;21.35;;;1.50;99.90;;;-0.38;100.00;100512.06;4912986;29;20104;-79
2022/12/12 09:56:26;;;;;;;44.75;20.27;;;1.90;99.90;;;0.90;95.05;100513.81;4920277;29;20395;-79
2022/12/12 09:59:02;;;;;;;41.85;17.95;;;2.30;99.90;;;0.93;84.27;100513.47;4916845;29;20040;-79
2022/12/12 10:01:42;;;;;;;38.03;17.30;;;2.50;99.90;;;2.04;77.21;100510.16;4907332;29;20428;-78
2022/12/12 10:04:30;;;;;;;37.92;16.30;;;2.90;99.90;;;2.75;71.30;100504.34;4903461;29;20032;-79
2022/12/12 10:07:13;;;;;;;37.97;16.77;;;3.60;99.90;;;2.69;71.53;100513.94;4907413;29;20044;-79
2022/12/12 10:09:56;;;;;;;35.03;16.27;;;3.60;99.90;;;2.43;65.99;100517.63;4907332;29;20036;-79
2022/12/12 10:12:25;;;;;;;32.35;15.02;;;3.80;99.90;;;3.15;66.28;100516.94;4903312;29;20040;-79
2022/12/12 10:15:01;;;;;;;33.00;16.55;;;4.30;99.90;;;3.05;64.67;100518.13;4907931;29;20045;-79
2022/12/12 10:17:36;;;;;;;32.08;15.50;;;4.10;99.90;;;2.43;65.05;100521.19;4900652;29;20047;-79
2022/12/12 10:20:17;;;;;;;34.47;17.30;;;4.10;99.90;;;2.20;66.13;100514.75;4909803;29;20065;-79
2022/12/12 10:22:55;;;;;;;30.23;15.23;;;3.80;99.90;;;2.08;67.83;100517.72;4912474;29;20024;-79
2022/12/12 10:25:55;;;;;;;35.33;16.50;;;3.50;99.90;;;2.44;68.58;100522.88;4908571;29;20063;-80
2022/12/12 10:28:25;;;;;;;33.63;16.15;;;3.40;99.90;;;2.31;63.48;100522.50;4902575;29;20074;-79
2022/12/12 10:31:57;;;;;;;31.88;15.93;;;3.40;99.90;;;2.48;66.87;100527.91;4906581;29;20086;-80
2022/12/12 10:35:09;;;;;;;34.78;15.38;;;3.50;99.90;;;2.77;64.56;100526.59;4852211;29;20233;-83